Terminal Aerodrome Forecast
Issued by NWS

Home | Current Version | Previous Version | Text Only | Print | Product List | Glossary On
Versions: 1 2 3 4 5 6 7 8 9 10 11 12 13 14
000
FTUS46 KSEW 011120
TAFCLM
TAF
KCLM 011120Z 0112/0212 26003KT P6SM VCFG SCT002
      TEMPO 0112/0116 1/2SM FG VV001
     FM011700 01005KT P6SM SKC
     FM020100 30008KT P6SM SKC=

USA.gov is the U.S. government's official web portal to all federal, state and local government web resources and services.